Latest Weather Observations for South Johnstone

IDQ60801

Issued at 11:32 am EST Friday 6 May 2016 (issued every 30 minutes, with the page automatically refreshed every 10 minutes)

About weather observations | Map of weather stations | Latest weather observations for QLD | Other Formats
Station Details ID: 032037 Name: SOUTH JOHNSTONE EXP STN Lat: -17.61 Lon: 146.00 Height: 18.3 m
Data from the previous 72 hours. | See also: Recent months at South Johnstone
Date/Time
EST
Temp
°C
App
Temp
°C
Dew
Point
Rel
Hum
%
Delta-T
°C
Wind Press
QNH
hPa
Press
MSL
hPa
Rain
since 9 am
mm
Dir
 
Spd
km/h
Gust
km/h
Spd
kts
Gust
kts
06/11:30am 29.1 32.1 22.6 68 4.4 E 11 19 6 10 1015.3 - 0.0
06/11:00am 27.9 31.2 22.6 73 3.6 SSE 9 13 5 7 1015.7 - 0.0
06/10:30am 27.9 31.4 22.9 74 3.4 ESE 9 13 5 7 1016.1 - 0.0
06/10:00am 27.2 33.2 24.2 84 2.1 CALM 0 0 0 0 1016.4 - 0.0
06/09:30am 26.1 30.9 24.1 89 1.4 SW 6 7 3 4 1016.5 - 0.0
06/09:00am 24.6 29.5 23.7 95 0.6 SSW 4 9 2 5 1016.4 1016.3 3.8
06/08:30am 23.8 29.1 23.1 96 0.5 CALM 0 0 0 0 1016.2 - 3.8
06/08:00am 23.6 27.5 23.0 96 0.4 WSW 7 13 4 7 1015.9 - 2.6
06/07:30am 22.9 27.6 22.6 98 0.2 SE 2 6 1 3 1015.5 - 2.6
06/07:00am 22.6 27.1 22.3 98 0.2 WSW 2 7 1 4 1015.0 - 1.4
06/06:30am 22.5 25.6 22.2 98 0.2 WSW 9 13 5 7 1014.4 - 1.4
06/06:00am 22.6 27.5 22.3 98 0.2 CALM 0 0 0 0 1014.3 1014.2 1.4
06/05:30am 22.4 27.2 22.1 98 0.2 CALM 0 0 0 0 1014.2 - 1.4
06/05:00am 22.2 25.4 21.7 97 0.3 NE 7 19 4 10 1014.1 - 0.8
06/04:30am 21.9 25.2 21.4 97 0.3 WNW 6 9 3 5 1013.9 - 0.4
06/04:00am 22.0 26.5 21.5 97 0.3 CALM 0 0 0 0 1013.7 - 0.4
06/03:30am 21.8 26.1 21.2 96 0.4 CALM 0 0 0 0 1013.7 - 0.4
06/03:00am 21.9 25.6 21.4 97 0.3 W 4 13 2 7 1013.7 1013.6 0.4
06/02:30am 22.1 25.4 21.5 96 0.4 WNW 6 7 3 4 1014.3 - 0.4
06/02:00am 22.1 26.2 21.5 96 0.4 W 2 9 1 5 1014.6 - 0.4
06/01:30am 22.2 26.7 21.6 96 0.4 CALM 0 0 0 0 1014.8 - 0.4
06/01:00am 22.4 27.0 21.8 96 0.4 CALM 0 0 0 0 1015.1 - 0.4
06/12:30am 22.5 27.2 21.9 96 0.4 CALM 0 6 0 3 1015.3 - 0.4
06/12:00am 22.7 26.6 21.9 95 0.5 W 4 9 2 5 1015.4 1015.3 0.4
 
Date/Time
EST
Temp
°C
App
Temp
°C
Dew
Point
Rel
Hum
%
Delta-T
°C
Wind Press
QNH
hPa
Press
MSL
hPa
Rain
since 9 am
mm
Dir
 
Spd
km/h
Gust
km/h
Spd
kts
Gust
kts
05/11:30pm 22.9 27.7 22.1 95 0.5 CALM 0 6 0 3 1015.7 - 0.4
05/11:00pm 23.1 27.2 22.3 95 0.5 NNE 4 11 2 6 1015.8 - 0.4
05/10:30pm 23.0 27.0 22.1 95 0.6 W 4 7 2 4 1016.1 - 0.0
05/10:00pm 23.2 26.4 22.3 95 0.6 WSW 9 11 5 6 1016.0 - 0.0
05/09:30pm 23.2 28.1 22.3 95 0.6 CALM 0 0 0 0 1016.1 - 0.0
05/09:00pm 23.5 28.5 22.5 94 0.7 CALM 0 0 0 0 1016.1 1016.0 0.0
05/08:30pm 23.6 28.5 22.4 93 0.8 CALM 0 0 0 0 1016.1 - 0.0
05/08:00pm 23.9 29.0 22.6 92 0.9 CALM 0 0 0 0 1015.9 - 0.0
05/07:30pm 24.2 29.3 22.6 91 1.1 CALM 0 0 0 0 1015.6 - 0.0
05/07:00pm 24.5 29.7 22.9 91 1.1 CALM 0 0 0 0 1015.1 - 0.0
05/06:30pm 25.3 30.6 23.1 87 1.5 CALM 0 0 0 0 1014.7 - 0.0
05/06:00pm 26.2 31.2 22.5 80 2.5 CALM 0 0 0 0 1014.5 1014.4 0.0
05/05:30pm 26.9 31.9 22.5 77 3.0 CALM 0 7 0 4 1014.3 - 0.0
05/05:00pm 27.4 30.0 21.9 72 3.7 SE 11 17 6 9 1013.9 - 0.0
05/04:30pm 27.8 30.3 21.7 69 4.1 ESE 11 15 6 8 1013.6 - 0.0
05/04:00pm 28.0 29.8 21.2 66 4.5 SE 13 19 7 10 1013.5 - 0.0
05/03:30pm 28.5 30.2 21.0 64 5.0 ESE 13 20 7 11 1013.2 - 0.0
05/03:00pm 27.8 30.4 22.0 70 3.9 ESE 11 17 6 9 1013.2 1013.1 0.0
05/02:30pm 29.0 31.3 22.0 66 4.7 ESE 13 20 7 11 1013.4 - 0.0
05/02:00pm 27.9 30.3 22.3 71 3.8 ESE 13 20 7 11 1013.7 - 0.0
05/01:30pm 28.6 31.4 23.0 71 3.8 ESE 13 22 7 12 1013.9 - 0.0
05/01:00pm 28.5 30.7 21.8 67 4.5 ESE 13 24 7 13 1014.2 - 0.0
05/12:30pm 28.9 31.4 22.4 68 4.4 SE 13 19 7 10 1014.8 - 0.0
05/12:00pm 29.3 31.7 22.2 65 4.8 ESE 13 22 7 12 1015.3 1015.2 0.0
05/11:30am 29.0 32.1 22.8 69 4.2 ESE 11 17 6 9 1015.7 - 0.0
05/11:00am 27.7 30.7 22.7 74 3.4 SE 11 17 6 9 1016.2 - 0.0
05/10:30am 28.1 31.7 23.0 74 3.5 ESE 9 17 5 9 1016.6 - 0.0
05/10:00am 27.3 30.9 23.0 77 2.9 SSE 9 17 5 9 1016.8 - 0.0
05/09:30am 27.0 30.5 22.9 78 2.8 S 9 13 5 7 1016.7 - 0.0
05/09:00am 26.0 31.7 23.7 87 1.6 CALM 0 0 0 0 1016.7 1016.6 0.0
05/08:30am 24.4 29.6 22.9 91 1.0 CALM 0 0 0 0 1016.4 - 0.0
05/08:00am 22.6 27.4 22.1 97 0.3 CALM 0 6 0 3 1016.1 - 0.0
05/07:30am 21.4 25.6 20.9 97 0.3 CALM 0 0 0 0 1015.7 - 0.0
05/07:00am 21.0 25.0 20.5 97 0.3 CALM 0 2 0 1 1015.6 - 0.0
05/06:30am 21.1 25.1 20.6 97 0.3 CALM 0 0 0 0 1015.1 - 0.0
05/06:00am 21.1 24.7 20.5 96 0.4 WSW 2 9 1 5 1015.0 1014.9 0.0
05/05:30am 21.2 24.1 20.7 97 0.3 W 6 11 3 6 1014.7 - 0.0
05/05:00am 21.2 24.1 20.7 97 0.3 W 6 9 3 5 1014.5 - 0.0
05/04:30am 21.3 24.3 20.8 97 0.3 WSW 6 11 3 6 1014.5 - 0.0
05/04:00am 21.5 25.3 20.9 96 0.4 WNW 2 7 1 4 1014.5 - 0.0
05/03:30am 21.5 25.7 20.9 96 0.4 CALM 0 4 0 2 1014.7 - 0.0
05/03:00am 21.7 24.2 21.1 96 0.4 WSW 9 13 5 7 1014.7 1014.6 0.0
05/02:30am 21.5 25.7 20.9 96 0.4 CALM 0 0 0 0 1014.7 - 0.0
05/02:00am 21.6 24.7 21.1 97 0.3 W 6 13 3 7 1014.9 - 0.0
05/01:30am 21.7 24.7 21.2 97 0.3 W 7 11 4 6 1015.1 - 0.0
05/01:00am 21.9 25.5 21.3 96 0.4 WNW 4 6 2 3 1015.2 - 0.0
05/12:30am 22.0 26.3 21.2 95 0.5 CALM 0 0 0 0 1015.6 - 0.0
05/12:00am 22.1 24.9 21.5 96 0.4 W 9 13 5 7 1015.6 1015.5 0.0
 
Date/Time
EST
Temp
°C
App
Temp
°C
Dew
Point
Rel
Hum
%
Delta-T
°C
Wind Press
QNH
hPa
Press
MSL
hPa
Rain
since 9 am
mm
Dir
 
Spd
km/h
Gust
km/h
Spd
kts
Gust
kts
04/11:30pm 22.2 25.5 21.4 95 0.5 W 6 9 3 5 1015.8 - 0.0
04/11:00pm 22.3 25.1 21.5 95 0.5 W 9 13 5 7 1015.9 - 0.0
04/10:30pm 22.4 26.9 21.5 95 0.6 CALM 0 0 0 0 1015.9 - 0.0
04/10:00pm 22.6 26.8 21.7 95 0.6 W 2 7 1 4 1015.8 - 0.0
04/09:30pm 22.8 27.5 21.9 95 0.6 CALM 0 7 0 4 1015.8 - 0.0
04/09:00pm 23.0 27.7 21.9 93 0.7 CALM 0 0 0 0 1015.8 1015.7 0.0
04/08:30pm 23.2 27.5 22.0 93 0.8 WNW 2 9 1 5 1015.6 - 0.0
04/08:00pm 23.7 27.7 22.0 90 1.1 W 4 9 2 5 1015.3 - 0.0
04/07:30pm 24.1 28.2 22.3 90 1.2 W 4 6 2 3 1014.7 - 0.0
04/07:00pm 24.5 29.6 22.6 89 1.3 CALM 0 0 0 0 1014.3 - 0.0
04/06:30pm 25.4 28.8 22.0 81 2.3 SSE 7 9 4 5 1013.7 - 0.0
04/06:00pm 25.7 29.1 22.0 80 2.5 SE 7 11 4 6 1013.4 1013.3 0.0
04/05:30pm 26.7 30.0 21.9 75 3.2 SE 7 9 4 5 1013.1 - 0.0
04/05:00pm 27.9 31.0 21.5 68 4.3 ESE 7 13 4 7 1012.9 - 0.0
04/04:30pm 28.4 31.1 21.4 66 4.7 ESE 9 13 5 7 1012.7 - 0.0
04/04:00pm 28.8 31.1 19.9 58 5.8 ESE 7 13 4 7 1012.7 - 0.0
04/03:30pm 29.2 31.3 20.2 58 5.9 ESE 9 17 5 9 1012.5 - 0.0
04/03:00pm 29.2 31.7 21.1 61 5.4 E 9 15 5 8 1012.7 1012.6 0.0
04/02:30pm 29.0 30.8 20.4 59 5.7 ESE 11 15 6 8 1012.7 - 0.0
04/02:00pm 29.3 31.6 20.7 59 5.7 ESE 9 15 5 8 1013.1 - 0.0
04/01:30pm 29.1 30.9 20.3 59 5.8 SSE 11 17 6 9 1013.3 - 0.0
04/01:00pm 29.6 31.8 20.5 58 6.0 E 9 15 5 8 1013.7 - 0.0
04/12:30pm 29.4 31.3 20.6 59 5.8 E 11 17 6 9 1014.1 - 0.0
04/12:00pm 28.5 30.7 21.1 64 4.9 SE 11 17 6 9 1014.6 1014.5 0.0
04/11:30am 28.3 30.9 21.9 68 4.3 SE 11 20 6 11 1015.0 - 0.0
04/11:00am 28.5 31.2 22.1 68 4.3 S 11 17 6 9 1015.5 - 0.0
04/10:30am 28.0 30.7 22.2 70 3.9 SSE 11 17 6 9 1015.9 - 0.0
04/10:00am 27.8 32.5 23.3 76 3.1 S 4 9 2 5 1016.0 - 0.0
04/09:30am 26.7 31.8 22.7 79 2.7 CALM 0 6 0 3 1016.1 - 0.0
04/09:00am 25.5 30.3 22.8 85 1.8 W 2 9 1 5 1016.1 1016.0 0.2
04/08:30am 23.5 27.5 22.1 92 0.9 WNW 4 7 2 4 1016.0 - 0.2
04/08:00am 22.0 25.0 21.2 95 0.5 WSW 7 11 4 6 1015.7 - 0.2
04/07:30am 21.5 25.7 21.0 97 0.3 CALM 0 7 0 4 1015.5 - 0.2
04/07:00am 20.2 22.5 19.9 98 0.2 WSW 7 11 4 6 1015.4 - 0.2
04/06:30am 20.1 23.7 19.8 98 0.2 CALM 0 0 0 0 1014.8 - 0.2
04/06:00am 20.2 23.9 19.9 98 0.2 CALM 0 0 0 0 1014.4 1014.3 0.2
04/05:30am 20.2 23.5 19.9 98 0.2 W 2 9 1 5 1014.2 - 0.0
04/05:00am 20.3 23.6 20.0 98 0.2 W 2 9 1 5 1013.7 - 0.0
04/04:30am 20.7 24.6 20.4 98 0.2 CALM 0 0 0 0 1013.5 - 0.0
04/04:00am 20.6 24.5 20.3 98 0.2 CALM 0 0 0 0 1013.5 - 0.0
04/03:30am 20.7 24.5 20.2 97 0.3 CALM 0 0 0 0 1013.5 - 0.0
04/03:00am 20.9 24.8 20.4 97 0.3 CALM 0 6 0 3 1013.6 1013.5 0.0
04/02:30am 20.8 24.8 20.5 98 0.2 CALM 0 6 0 3 1013.7 - 0.0
04/02:00am 21.0 24.6 20.5 97 0.3 WNW 2 7 1 4 1013.9 - 0.0
04/01:30am 21.2 24.0 20.9 98 0.2 WNW 7 9 4 5 1013.9 - 0.0
04/01:00am 21.3 23.7 20.8 97 0.3 WSW 9 11 5 6 1014.1 - 0.0
04/12:30am 21.4 25.6 20.9 97 0.3 CALM 0 0 0 0 1014.3 - 0.0
04/12:00am 21.7 26.0 21.2 97 0.3 CALM 0 0 0 0 1014.6 1014.5 0.0
 
Date/Time
EST
Temp
°C
App
Temp
°C
Dew
Point
Rel
Hum
%
Delta-T
°C
Wind Press
QNH
hPa
Press
MSL
hPa
Rain
since 9 am
mm
Dir
 
Spd
km/h
Gust
km/h
Spd
kts
Gust
kts
03/11:30pm 21.9 26.3 21.4 97 0.3 CALM 0 6 0 3 1014.8 - 0.0
03/11:00pm 22.2 25.4 21.6 96 0.4 W 7 13 4 7 1014.9 - 0.0
03/10:30pm 22.3 25.2 21.8 97 0.3 WSW 9 13 5 7 1015.1 - 0.0
03/10:00pm 22.3 26.1 21.7 96 0.4 W 4 7 2 4 1015.1 - 0.0
03/09:30pm 22.4 26.3 21.8 96 0.4 W 4 9 2 5 1015.1 - 0.0
03/09:00pm 22.7 27.0 21.9 95 0.5 W 2 7 1 4 1015.0 1014.9 0.0
03/08:30pm 22.8 26.4 22.0 95 0.5 W 6 7 3 4 1014.8 - 0.0
03/08:00pm 23.4 27.6 22.4 94 0.7 WSW 4 7 2 4 1014.7 - 0.0
03/07:30pm 23.6 28.7 22.6 94 0.7 CALM 0 2 0 1 1014.1 - 0.0
03/07:00pm 24.3 29.4 22.7 91 1.1 CALM 0 0 0 0 1013.6 - 0.0
03/06:30pm 24.8 29.9 22.7 88 1.4 CALM 0 0 0 0 1013.3 - 0.0
03/06:00pm 25.7 30.6 22.3 81 2.3 CALM 0 0 0 0 1012.9 1012.8 0.0
03/05:30pm 26.5 30.1 22.0 76 3.0 E 6 7 3 4 1012.6 - 0.0
03/05:00pm 27.2 29.8 21.2 69 4.0 E 9 15 5 8 1012.2 - 0.0
03/04:30pm 27.8 30.6 21.5 68 4.2 E 9 13 5 7 1011.9 - 0.0
03/04:00pm 28.2 30.7 21.8 68 4.3 E 11 17 6 9 1011.6 - 0.0
03/03:30pm 28.9 32.0 22.9 70 4.1 E 11 17 6 9 1011.5 - 0.0
03/03:00pm 29.7 33.0 22.5 65 4.9 E 9 15 5 8 1011.5 1011.4 0.0
03/02:30pm 29.7 32.7 22.7 66 4.8 E 11 17 6 9 1011.6 - 0.0
03/02:00pm 30.1 34.0 22.9 65 4.9 ENE 7 13 4 7 1012.0 - 0.0
03/01:30pm 30.2 33.8 22.4 63 5.3 ENE 7 17 4 9 1012.4 - 0.0
03/01:00pm 29.8 33.5 21.5 61 5.6 S 4 11 2 6 1012.8 - 0.0
03/12:30pm 30.1 33.6 21.8 61 5.6 ESE 6 9 3 5 1013.1 - 0.0
03/12:00pm 30.2 35.5 23.1 65 4.9 CALM 0 6 0 3 1013.6 1013.5 0.0

Other Formats:

Comma delimited format used in spreadsheet applications
http://www.bom.gov.au/fwo/IDQ60801/IDQ60801.95292.axf

JavaScript Object Notation format (JSON) in row-major order
http://www.bom.gov.au/fwo/IDQ60801/IDQ60801.95292.json